M I D A S
Marine Information and Data Acquisition System
Tripno 1728 of the Zeeleeuw from 2009-07-01 08:36:45 to 2009-07-01 14:22:57
Back to CruiseResearch ActivitiesStationsMapUnderway DataData graphs

EquipmentUnitsComments
TimeDGPSUTC
LatitudeDGPSDM.mWGS84
LongitudeDGPSDM.mWGS84
SpeedMeteo Stationm/sRelative wind speed
DirectionMeteo StationdegRelative wind direction
TemperatureMeteo Stationdeg CelciusAir temperature
PressureMeteo StationPaAtmospheric pressure
HumidityMeteo Station%Relative humidity
Missing or incorrect values are displayed as -999
Metereological data collected by the RV Zeeleeuw from 2009-07-01 08:30:22 to 2009-07-01 14:34:10
Time Latitude Longitude Speed Direction Temperature Pressure Humidity
2009-07-01 08:31 51°13.678 2°55.894 4.4 257 18.9 102270 77
2009-07-01 08:32 51°13.698 2°55.79 4.3 265 18.9 102270 78
2009-07-01 08:33 51°13.705 2°55.761 3.3 28 18.8 102270 78
2009-07-01 08:34 51°13.705 2°55.748 3.9 323 18.8 102260 78
2009-07-01 08:35 51°13.76 2°55.718 8.3 349 18.7 102260 76
2009-07-01 08:36 51°13.874 2°55.612 8.9 347 18.4 102260 78
2009-07-01 08:37 51°14.009 2°55.498 7.2 345 18.2 102250 80
2009-07-01 08:38 51°14.137 2°55.398 6.2 343 18.1 102260 79
2009-07-01 08:39 51°14.252 2°55.258 6.2 354 18 102270 80
2009-07-01 08:40 51°14.354 2°55.083 6.8 352 17.9 102260 82
2009-07-01 08:41 51°14.48 2°54.94 6.8 351 17.8 102260 82
2009-07-01 08:42 51°14.631 2°54.798 10.2 346 17.7 102260 83
2009-07-01 08:43 51°14.793 2°54.648 9.6 347 17.6 102260 81
2009-07-01 08:44 51°14.957 2°54.501 9.2 349 17.6 102260 82
2009-07-01 08:45 51°15.122 2°54.346 7.8 350 17.5 102260 82
2009-07-01 08:46 51°15.284 2°54.189 9.3 355 17.5 102270 82
2009-07-01 08:47 51°15.45 2°54.038 8.7 353 17.5 102270 83
2009-07-01 08:48 51°15.616 2°53.891 10.5 349 17.5 102270 83
2009-07-01 08:49 51°15.784 2°53.749 9.2 348 17.4 102260 83
2009-07-01 08:50 51°15.954 2°53.61 7.4 348 17.4 102270 81
2009-07-01 08:51 51°16.122 2°53.467 9.6 347 17.4 102270 82
2009-07-01 08:52 51°16.287 2°53.319 10.4 347 17.4 102270 81
2009-07-01 08:53 51°16.455 2°53.178 9.3 349 17.4 102270 83
2009-07-01 08:54 51°16.623 2°53.036 8.8 347 17.3 102270 82
2009-07-01 08:55 51°16.791 2°52.892 7.9 348 17.3 102280 81
2009-07-01 08:56 51°16.959 2°52.748 10.9 346 17.3 102280 82
2009-07-01 08:57 51°17.128 2°52.605 10.4 346 17.2 102280 81
2009-07-01 08:58 51°17.294 2°52.454 8.9 350 17.2 102290 82
2009-07-01 08:59 51°17.466 2°52.313 9.6 349 17.2 102290 81
2009-07-01 09:00 51°17.655 2°52.267 10.1 340 17.2 102280 82
2009-07-01 09:01 51°17.85 2°52.302 10.7 339 17.3 102290 82
2009-07-01 09:02 51°18.047 2°52.346 12.5 338 17.3 102270 82
2009-07-01 09:03 51°18.242 2°52.393 10.1 336 17.4 102280 80
2009-07-01 09:04 51°18.434 2°52.443 11.9 339 17.4 102280 79
2009-07-01 09:05 51°18.626 2°52.492 11.2 336 17.4 102280 80
2009-07-01 09:06 51°18.819 2°52.542 10.2 338 17.4 102280 80
2009-07-01 09:07 51°19.019 2°52.59 11 339 17.4 102280 81
2009-07-01 09:08 51°19.221 2°52.641 11.3 334 17.5 102280 80
2009-07-01 09:09 51°19.424 2°52.697 12.7 331 17.5 102290 81
2009-07-01 09:10 51°19.627 2°52.749 11.2 342 17.5 102280 80
2009-07-01 09:11 51°19.831 2°52.805 13.1 337 17.4 102280 80
2009-07-01 09:12 51°20.036 2°52.862 9.8 336 17.4 102280 80
2009-07-01 09:13 51°20.239 2°52.919 12.5 337 17.4 102280 80
2009-07-01 09:14 51°20.439 2°52.98 12.2 338 17.4 102280 79
2009-07-01 09:15 51°20.639 2°53.049 13.2 341 17.4 102280 79
2009-07-01 09:16 51°20.837 2°53.114 9.9 341 17.4 102280 79
2009-07-01 09:17 51°21.035 2°53.182 9.8 339 17.5 102280 79
2009-07-01 09:18 51°21.235 2°53.248 12.7 336 17.5 102280 79
2009-07-01 09:19 51°21.434 2°53.309 12.6 337 17.5 102280 78
2009-07-01 09:20 51°21.634 2°53.368 10 336 17.5 102280 78
2009-07-01 09:21 51°21.835 2°53.427 10.9 338 17.5 102280 79
2009-07-01 09:22 51°22.035 2°53.492 12 337 17.5 102280 79
2009-07-01 09:23 51°22.236 2°53.558 13 336 17.5 102280 78
2009-07-01 09:24 51°22.437 2°53.62 9.8 340 17.5 102280 79
2009-07-01 09:25 51°22.639 2°53.678 11.7 339 17.5 102290 79
2009-07-01 09:26 51°22.842 2°53.735 11.8 339 17.5 102290 78
2009-07-01 09:27 51°23.046 2°53.8 12 337 17.5 102290 79
2009-07-01 09:28 51°23.252 2°53.86 11.8 335 17.5 102290 77
2009-07-01 09:29 51°23.456 2°53.921 13.2 337 17.5 102290 78
2009-07-01 09:30 51°23.659 2°53.988 12.4 335 17.5 102290 77
2009-07-01 09:31 51°23.863 2°54.056 12.2 333 17.5 102290 79
2009-07-01 09:32 51°24.068 2°54.122 13.2 336 17.6 102290 78
2009-07-01 09:33 51°24.273 2°54.191 12.8 336 17.5 102300 77
2009-07-01 09:34 51°24.481 2°54.249 12.4 341 17.5 102300 78
2009-07-01 09:35 51°24.689 2°54.301 12 339 17.5 102300 78
2009-07-01 09:36 51°24.897 2°54.348 12.8 335 17.5 102300 78
2009-07-01 09:37 51°25.104 2°54.397 12 335 17.4 102300 77
2009-07-01 09:38 51°25.312 2°54.45 11.9 338 17.4 102300 77
2009-07-01 09:39 51°25.522 2°54.484 11.5 340 17.4 102300 77
2009-07-01 09:40 51°25.722 2°54.591 10.3 335 17.4 102300 76
2009-07-01 09:41 51°25.926 2°54.646 10.7 338 17.4 102310 77
2009-07-01 09:42 51°26.133 2°54.644 12.1 341 17.4 102310 77
2009-07-01 09:43 51°26.337 2°54.643 11.9 338 17.4 102320 78
2009-07-01 09:44 51°26.543 2°54.65 12.3 337 17.4 102310 78
2009-07-01 09:45 51°26.75 2°54.657 11 339 17.4 102310 77
2009-07-01 09:46 51°26.958 2°54.659 11.1 338 17.3 102310 78
2009-07-01 09:47 51°27.166 2°54.661 10 339 17.3 102310 77
2009-07-01 09:48 51°27.374 2°54.657 12.1 338 17.3 102310 77
2009-07-01 09:49 51°27.581 2°54.656 12.8 342 17.3 102310 77
2009-07-01 09:50 51°27.79 2°54.657 9.3 344 17.2 102320 77
2009-07-01 09:51 51°28.001 2°54.66 10.8 339 17.2 102320 76
2009-07-01 09:52 51°28.211 2°54.666 13.1 338 17.2 102320 77
2009-07-01 09:53 51°28.42 2°54.672 12 339 17.2 102330 76
2009-07-01 09:54 51°28.63 2°54.681 11.3 343 17.2 102320 76
2009-07-01 09:55 51°28.84 2°54.693 11.2 341 17.2 102320 76
2009-07-01 09:56 51°29.048 2°54.698 12.2 341 17.2 102320 78
2009-07-01 09:57 51°29.251 2°54.696 11.9 342 17.2 102320 76
2009-07-01 09:58 51°29.453 2°54.706 11 339 17.2 102320 76
2009-07-01 09:59 51°29.657 2°54.716 11.5 339 17.2 102320 77
2009-07-01 10:00 51°29.861 2°54.726 10.6 336 17.2 102320 77
2009-07-01 10:01 51°30.066 2°54.728 12.2 337 17.2 102320 76
2009-07-01 10:02 51°30.273 2°54.735 10.9 337 17.2 102320 75
2009-07-01 10:03 51°30.48 2°54.742 11.3 337 17.2 102320 76
2009-07-01 10:04 51°30.687 2°54.743 11.7 339 17.2 102320 76
2009-07-01 10:05 51°30.894 2°54.747 10.7 336 17.2 102320 76
2009-07-01 10:06 51°31.103 2°54.745 11.6 337 17.2 102320 77
2009-07-01 10:07 51°31.312 2°54.748 10.5 340 17.2 102310 77
2009-07-01 10:08 51°31.522 2°54.749 11.3 339 17.2 102320 76
2009-07-01 10:09 51°31.725 2°54.7 9.7 346 17.1 102320 76
2009-07-01 10:10 51°31.908 2°54.615 9.3 345 17 102320 77
2009-07-01 10:11 51°32.059 2°54.546 8.6 346 17 102330 77
2009-07-01 10:12 51°32.206 2°54.483 7.9 339 16.9 102330 78
2009-07-01 10:13 51°32.349 2°54.427 8.1 344 16.9 102330 78
2009-07-01 10:14 51°32.457 2°54.388 6.9 351 17 102330 77
2009-07-01 10:15 51°32.541 2°54.358 6.6 355 16.9 102330 77
2009-07-01 10:16 51°32.586 2°54.3 4.3 26 16.9 102340 79
2009-07-01 10:17 51°32.587 2°54.249 3.1 22 17 102350 79
2009-07-01 10:18 51°32.576 2°54.232 4.5 26 17.1 102350 78
2009-07-01 10:19 51°32.569 2°54.225 6.5 28 17 102350 76
2009-07-01 10:20 51°32.565 2°54.219 5.4 28 16.9 102350 76
2009-07-01 10:21 51°32.562 2°54.213 5.9 27 16.9 102350 76
2009-07-01 10:22 51°32.55 2°54.217 4.5 263 16.9 102350 75
2009-07-01 10:23 51°32.541 2°54.247 6.3 21 17.1 102350 77
2009-07-01 10:24 51°32.545 2°54.295 7.2 29 17.2 102350 75
2009-07-01 10:25 51°32.561 2°54.351 7.2 316 17.2 102330 75
2009-07-01 10:26 51°32.575 2°54.416 5.8 23 17.2 102330 75
2009-07-01 10:27 51°32.579 2°54.487 5.2 22 17.3 102340 74
2009-07-01 10:28 51°32.577 2°54.56 6.5 26 17.3 102340 76
2009-07-01 10:29 51°32.566 2°54.629 5.8 245 17.4 102340 76
2009-07-01 10:30 51°32.548 2°54.696 6.1 23 17.5 102340 76
2009-07-01 10:31 51°32.527 2°54.759 4.3 250 17.6 102350 76
2009-07-01 10:32 51°32.502 2°54.817 6.7 256 17.7 102350 75
2009-07-01 10:33 51°32.476 2°54.876 6.5 254 17.7 102340 75
2009-07-01 10:34 51°32.448 2°54.941 6.3 250 17.8 102340 76
2009-07-01 10:35 51°32.413 2°55.01 7.2 258 17.8 102340 74
2009-07-01 10:36 51°32.373 2°55.086 7.2 259 17.8 102340 76
2009-07-01 10:37 51°32.324 2°55.175 5.1 22 17.8 102340 75
2009-07-01 10:38 51°32.267 2°55.279 6.8 22 17.8 102340 76
2009-07-01 10:39 51°32.206 2°55.386 6.7 248 17.8 102340 74
2009-07-01 10:40 51°32.146 2°55.497 6.4 247 17.8 102340 76
2009-07-01 10:41 51°32.094 2°55.597 5.9 253 17.8 102340 76
2009-07-01 10:42 51°32.05 2°55.684 7.2 257 17.8 102340 74
2009-07-01 10:43 51°32.01 2°55.77 6.1 253 17.8 102340 75
2009-07-01 10:44 51°31.976 2°55.842 5.2 255 17.8 102340 76
2009-07-01 10:45 51°31.955 2°55.9 6.1 256 17.8 102350 74
2009-07-01 10:46 51°31.941 2°55.947 6.5 258 17.9 102350 76
2009-07-01 10:47 51°31.932 2°55.988 6.6 254 17.9 102340 74
2009-07-01 10:48 51°31.925 2°56.023 6.5 252 17.9 102340 74
2009-07-01 10:49 51°31.919 2°56.055 6.3 255 17.9 102340 74
2009-07-01 10:50 51°31.912 2°56.085 6.8 257 18 102340 74
2009-07-01 10:51 51°31.908 2°56.115 5.7 256 18 102340 75
2009-07-01 10:52 51°31.903 2°56.145 7 253 18 102330 76
2009-07-01 10:53 51°31.9 2°56.175 8.3 258 18 102330 76
2009-07-01 10:54 51°31.896 2°56.202 6.5 258 18 102330 75
2009-07-01 10:55 51°31.892 2°56.23 5.7 252 18 102340 74
2009-07-01 10:56 51°31.89 2°56.258 5.7 255 18 102340 74
2009-07-01 10:57 51°31.887 2°56.286 4.1 261 18 102330 74
2009-07-01 10:58 51°31.885 2°56.312 5.5 253 18.1 102330 74
2009-07-01 10:59 51°31.886 2°56.331 5.4 254 18.1 102330 74
2009-07-01 11:00 51°31.887 2°56.343 5.9 23 18.1 102330 75
2009-07-01 11:01 51°31.89 2°56.35 5.6 247 18.1 102330 74
2009-07-01 11:02 51°31.89 2°56.37 4.8 251 18 102330 73
2009-07-01 11:03 51°31.861 2°56.48 6.1 23 18 102330 74
2009-07-01 11:04 51°31.78 2°56.608 4.5 247 18 102330 74
2009-07-01 11:05 51°31.718 2°56.688 3.5 270 18 102330 74
2009-07-01 11:06 51°31.639 2°56.623 1.4 22 17.9 102340 75
2009-07-01 11:07 51°31.582 2°56.463 2.7 20 17.8 102330 75
2009-07-01 11:08 51°31.521 2°56.295 2.6 27 17.7 102330 74
2009-07-01 11:09 51°31.511 2°56.181 5.6 30 17.6 102330 74
2009-07-01 11:10 51°31.521 2°56.122 4.9 21 17.5 102330 75
2009-07-01 11:11 51°31.532 2°56.087 6.7 21 17.4 102340 76
2009-07-01 11:12 51°31.539 2°56.067 6.3 18 17.4 102340 76
2009-07-01 11:13 51°31.546 2°56.052 5.3 13 17.3 102340 75
2009-07-01 11:14 51°31.552 2°56.039 4.5 13 17.3 102340 76
2009-07-01 11:15 51°31.556 2°56.027 7.2 11 17.3 102340 77
2009-07-01 11:16 51°31.559 2°56.014 6.7 9 17.2 102330 76
2009-07-01 11:17 51°31.561 2°56.001 6.1 17 17.2 102340 76
2009-07-01 11:18 51°31.561 2°55.989 5.9 20 17.2 102340 77
2009-07-01 11:19 51°31.562 2°55.978 4.9 22 17.2 102330 75
2009-07-01 11:20 51°31.562 2°55.968 5.1 24 17.2 102330 75
2009-07-01 11:21 51°31.563 2°55.958 4.6 27 17.2 102330 75
2009-07-01 11:22 51°31.562 2°55.949 5.1 23 17.2 102330 76
2009-07-01 11:23 51°31.561 2°55.94 5.8 28 17.2 102330 77
2009-07-01 11:24 51°31.56 2°55.931 5.6 31 17.2 102330 75
2009-07-01 11:25 51°31.559 2°55.922 5.6 31 17.2 102330 75
2009-07-01 11:26 51°31.558 2°55.913 6.1 29 17.2 102330 77
2009-07-01 11:27 51°31.569 2°55.873 4.7 7 17.1 102340 76
2009-07-01 11:28 51°31.622 2°55.841 6.5 338 17 102330 76
2009-07-01 11:29 51°31.674 2°55.875 5.8 325 17.1 102330 77
2009-07-01 11:30 51°31.718 2°55.905 6.7 342 17.2 102330 75
2009-07-01 11:31 51°31.749 2°55.911 3.3 352 17.1 102330 76
2009-07-01 11:32 51°31.768 2°55.902 5 358 17.1 102340 77
2009-07-01 11:33 51°31.784 2°55.888 4.9 359 17 102340 76
2009-07-01 11:34 51°31.796 2°55.872 5 8 16.9 102340 78
2009-07-01 11:35 51°31.804 2°55.856 4.2 11 16.9 102340 78
2009-07-01 11:36 51°31.811 2°55.841 4.9 7 17 102350 77
2009-07-01 11:37 51°31.816 2°55.824 5.3 9 17 102340 76
2009-07-01 11:38 51°31.818 2°55.809 4.1 3 17 102340 77
2009-07-01 11:39 51°31.819 2°55.794 5.3 11 17.1 102340 78
2009-07-01 11:40 51°31.819 2°55.779 5.6 18 17.1 102340 77
2009-07-01 11:41 51°31.817 2°55.766 5.8 18 17.2 102340 77
2009-07-01 11:42 51°31.814 2°55.752 4.4 23 17.2 102340 78
2009-07-01 11:43 51°31.811 2°55.741 5.9 21 17.2 102340 76
2009-07-01 11:44 51°31.808 2°55.73 5.6 26 17.2 102340 77
2009-07-01 11:45 51°31.803 2°55.721 5.2 29 17.2 102340 77
2009-07-01 11:46 51°31.801 2°55.705 4.6 26 17.2 102340 75
2009-07-01 11:47 51°31.814 2°55.667 6.6 357 17.2 102340 76
2009-07-01 11:48 51°31.861 2°55.663 7.7 327 17.2 102330 78
2009-07-01 11:49 51°31.904 2°55.731 8.4 322 17.3 102330 78
2009-07-01 11:50 51°31.95 2°55.815 7.7 323 17.4 102330 77
2009-07-01 11:51 51°31.983 2°55.898 6.6 321 17.4 102330 76
2009-07-01 11:52 51°32.006 2°55.956 5.9 327 17.5 102330 76
2009-07-01 11:53 51°32.02 2°55.978 5.5 336 17.6 102330 77
2009-07-01 11:54 51°32.022 2°55.974 5.5 334 17.7 102330 75
2009-07-01 11:55 51°32.02 2°55.964 5 343 17.7 102330 74
2009-07-01 11:56 51°32.016 2°55.95 5.3 346 17.5 102320 76
2009-07-01 11:57 51°32.01 2°55.935 5.1 352 17.4 102330 76
2009-07-01 11:58 51°32.003 2°55.922 4.4 357 17.2 102330 77
2009-07-01 11:59 51°31.997 2°55.912 5.4 10 17.2 102330 78
2009-07-01 12:00 51°31.989 2°55.902 4.2 16 17.1 102340 78
2009-07-01 12:01 51°31.983 2°55.891 4.9 19 17.2 102340 78
2009-07-01 12:02 51°31.977 2°55.881 5.6 27 17.3 102340 78
2009-07-01 12:03 51°31.97 2°55.869 5.2 29 17.3 102340 77
2009-07-01 12:04 51°31.964 2°55.858 5.7 34 17.3 102340 77
2009-07-01 12:05 51°31.957 2°55.846 5.3 33 17.2 102340 75
2009-07-01 12:06 51°31.95 2°55.834 4.8 34 17.2 102340 77
2009-07-01 12:07 51°31.943 2°55.822 5.6 34 17.2 102340 77
2009-07-01 12:08 51°31.935 2°55.81 5.4 33 17.2 102340 78
2009-07-01 12:09 51°31.928 2°55.797 5.2 30 17.1 102340 77
2009-07-01 12:10 51°31.921 2°55.783 4.6 27 17.2 102340 77
2009-07-01 12:11 51°31.913 2°55.769 4.6 27 17.2 102340 78
2009-07-01 12:12 51°31.905 2°55.755 5.6 25 17.2 102340 77
2009-07-01 12:13 51°31.895 2°55.742 5.1 26 17.2 102330 78
2009-07-01 12:14 51°31.886 2°55.728 5.4 23 17.2 102330 76
2009-07-01 12:15 51°31.876 2°55.714 4.9 27 17.2 102330 77
2009-07-01 12:16 51°31.866 2°55.701 5 29 17.2 102330 77
2009-07-01 12:17 51°31.857 2°55.689 5.2 26 17.2 102330 78
2009-07-01 12:18 51°31.848 2°55.677 5.1 31 17.2 102330 77
2009-07-01 12:19 51°31.838 2°55.664 4.5 32 17.2 102330 76
2009-07-01 12:20 51°31.829 2°55.65 5 33 17.2 102320 77
2009-07-01 12:21 51°31.819 2°55.635 5.3 29 17.2 102320 77
2009-07-01 12:22 51°31.809 2°55.62 5 30 17.2 102320 77
2009-07-01 12:23 51°31.8 2°55.605 4.7 31 17.2 102320 78
2009-07-01 12:24 51°31.79 2°55.59 4.7 25 17.1 102320 77
2009-07-01 12:25 51°31.78 2°55.575 5 27 17.1 102320 78
2009-07-01 12:26 51°31.77 2°55.56 4.4 23 17.2 102320 78
2009-07-01 12:27 51°31.758 2°55.545 4.8 31 17.2 102320 77
2009-07-01 12:28 51°31.747 2°55.53 4.7 27 17.2 102320 79
2009-07-01 12:29 51°31.735 2°55.515 4.9 27 17.2 102320 79
2009-07-01 12:30 51°31.723 2°55.499 4.4 28 17.2 102320 78
2009-07-01 12:31 51°31.711 2°55.482 5.1 29 17.2 102320 78
2009-07-01 12:32 51°31.699 2°55.466 5.7 29 17.2 102320 78
2009-07-01 12:33 51°31.687 2°55.45 5.4 29 17.2 102320 78
2009-07-01 12:34 51°31.674 2°55.433 5.3 29 17.2 102320 78
2009-07-01 12:35 51°31.662 2°55.416 5.8 33 17.2 102320 77
2009-07-01 12:36 51°31.649 2°55.398 4.4 30 17.2 102320 77
2009-07-01 12:37 51°31.638 2°55.379 4.9 28 17.2 102320 78
2009-07-01 12:38 51°31.626 2°55.361 4.6 24 17.3 102320 78
2009-07-01 12:39 51°31.614 2°55.342 4.4 28 17.2 102320 78
2009-07-01 12:40 51°31.602 2°55.322 4.7 24 17.3 102320 77
2009-07-01 12:41 51°31.592 2°55.284 5.3 23 17.3 102320 79
2009-07-01 12:42 51°31.589 2°55.216 6 8 17.2 102320 78
2009-07-01 12:43 51°31.589 2°55.133 5 23 17.2 102320 78
2009-07-01 12:44 51°31.577 2°55.066 3.8 35 17.2 102320 79
2009-07-01 12:45 51°31.557 2°55.014 3.6 41 17.2 102320 79
2009-07-01 12:46 51°31.533 2°54.975 2.8 28 17.2 102330 78
2009-07-01 12:47 51°31.507 2°54.948 3.3 24 17.4 102330 80
2009-07-01 12:48 51°31.481 2°54.933 3.6 28 17.5 102330 78
2009-07-01 12:49 51°31.455 2°54.927 4.1 23 17.5 102320 78
2009-07-01 12:50 51°31.425 2°54.922 4.1 22 17.5 102320 76
2009-07-01 12:51 51°31.39 2°54.92 4.4 31 17.5 102320 76
2009-07-01 12:52 51°31.349 2°54.917 4.1 28 17.5 102320 77
2009-07-01 12:53 51°31.306 2°54.911 3.3 27 17.5 102310 77
2009-07-01 12:54 51°31.259 2°54.899 3.4 29 17.5 102310 77
2009-07-01 12:55 51°31.206 2°54.881 3 28 17.4 102310 78
2009-07-01 12:56 51°31.088 2°54.854 1.8 254 17.5 102310 78
2009-07-01 12:57 51°30.916 2°54.821 2.8 29 17.7 102320 79
2009-07-01 12:58 51°30.71 2°54.777 2 27 17.8 102320 77
2009-07-01 12:59 51°30.502 2°54.734 1.1 317 18 102320 77
2009-07-01 13:00 51°30.297 2°54.669 2.1 321 18.2 102320 77
2009-07-01 13:01 51°30.095 2°54.598 1.6 317 18.4 102320 75
2009-07-01 13:02 51°29.89 2°54.534 1.2 322 18.6 102320 74
2009-07-01 13:03 51°29.685 2°54.471 2.1 320 18.7 102320 74
2009-07-01 13:04 51°29.48 2°54.401 1.7 30 18.9 102310 74
2009-07-01 13:05 51°29.274 2°54.33 2 30 19 102310 74
2009-07-01 13:06 51°29.069 2°54.257 1.7 22 19.1 102310 72
2009-07-01 13:07 51°28.864 2°54.189 0.9 29 19.2 102310 72
2009-07-01 13:08 51°28.659 2°54.115 0.6 318 19.3 102310 72
2009-07-01 13:09 51°28.455 2°54.038 0.5 325 19.4 102310 72
2009-07-01 13:10 51°28.249 2°53.961 0.6 332 19.6 102300 71
2009-07-01 13:11 51°28.044 2°53.888 0.8 334 19.7 102300 71
2009-07-01 13:12 51°27.841 2°53.811 0.8 323 19.9 102300 71
2009-07-01 13:13 51°27.635 2°53.731 0.7 336 20 102300 69
2009-07-01 13:14 51°27.434 2°53.653 0.6 333 19.9 102300 69
2009-07-01 13:15 51°27.229 2°53.578 0.5 331 19.9 102300 71
2009-07-01 13:16 51°27.023 2°53.497 0.9 339 20.1 102300 70
2009-07-01 13:17 51°26.817 2°53.418 0.6 338 20.2 102300 69
2009-07-01 13:18 51°26.613 2°53.344 0.5 346 20.2 102300 68
2009-07-01 13:19 51°26.409 2°53.266 -999 345 20 102300 69
2009-07-01 13:20 51°26.202 2°53.183 0.4 334 20 102300 69
2009-07-01 13:21 51°25.997 2°53.119 0.4 323 20.1 102300 70
2009-07-01 13:22 51°25.789 2°53.061 1 23 20.3 102300 70
2009-07-01 13:23 51°25.582 2°53.016 1.9 243 20.4 102300 68
2009-07-01 13:24 51°25.375 2°53.044 1.9 27 20.3 102300 67
2009-07-01 13:25 51°25.168 2°53.081 1.7 22 20.2 102300 68
2009-07-01 13:26 51°24.96 2°53.097 1 23 20.2 102300 68
2009-07-01 13:27 51°24.749 2°53.073 0.4 320 20.2 102300 70
2009-07-01 13:28 51°24.533 2°53.038 1 319 20.3 102290 69
2009-07-01 13:29 51°24.326 2°53.006 0.8 28 20.3 102290 69
2009-07-01 13:30 51°24.113 2°52.977 1.9 25 20.4 102290 69
2009-07-01 13:31 51°23.895 2°52.947 1.6 28 20.4 102290 67
2009-07-01 13:32 51°23.684 2°52.913 1.7 29 20.3 102290 68
2009-07-01 13:33 51°23.471 2°52.875 0.7 27 20.2 102290 68
2009-07-01 13:34 51°23.257 2°52.835 1.6 24 20.3 102290 69
2009-07-01 13:35 51°23.04 2°52.795 1 22 20.3 102290 69
2009-07-01 13:36 51°22.829 2°52.761 2 29 20.3 102290 69
2009-07-01 13:37 51°22.617 2°52.727 1.6 29 20.3 102290 69
2009-07-01 13:38 51°22.401 2°52.685 1.2 28 20.3 102290 69
2009-07-01 13:39 51°22.19 2°52.648 1.5 29 20.3 102290 68
2009-07-01 13:40 51°21.977 2°52.608 0.5 253 20.3 102290 70
2009-07-01 13:41 51°21.766 2°52.566 0.9 242 20.4 102290 69
2009-07-01 13:42 51°21.559 2°52.526 1.4 27 20.5 102280 69
2009-07-01 13:43 51°21.351 2°52.493 1.8 249 20.6 102280 69
2009-07-01 13:44 51°21.145 2°52.46 1.7 264 20.6 102280 70
2009-07-01 13:45 51°20.935 2°52.423 1.7 25 20.5 102280 69
2009-07-01 13:46 51°20.728 2°52.38 0.7 260 20.4 102280 69
2009-07-01 13:47 51°20.524 2°52.352 1.9 258 20.3 102280 69
2009-07-01 13:48 51°20.315 2°52.349 1.9 258 20.2 102280 70
2009-07-01 13:49 51°20.106 2°52.352 1.8 257 20 102280 70
2009-07-01 13:50 51°19.896 2°52.35 1.4 265 19.9 102280 71
2009-07-01 13:51 51°19.686 2°52.349 1.9 253 19.8 102280 72
2009-07-01 13:52 51°19.473 2°52.347 3 258 19.8 102280 74
2009-07-01 13:53 51°19.265 2°52.341 1.5 262 19.6 102280 71
2009-07-01 13:54 51°19.057 2°52.338 2.1 254 19.5 102280 72
2009-07-01 13:55 51°18.852 2°52.338 2 246 19.4 102280 73
2009-07-01 13:56 51°18.642 2°52.341 2.1 260 19.4 102280 73
2009-07-01 13:57 51°18.434 2°52.35 1.4 259 19.2 102280 73
2009-07-01 13:58 51°18.221 2°52.359 1.8 255 19.2 102290 74
2009-07-01 13:59 51°18.012 2°52.365 2.1 257 19.2 102290 74
2009-07-01 14:00 51°17.806 2°52.373 3.1 256 19.3 102290 74
2009-07-01 14:01 51°17.592 2°52.376 2.2 256 19.3 102290 73
2009-07-01 14:02 51°17.384 2°52.385 2.1 253 19.2 102280 74
2009-07-01 14:03 51°17.173 2°52.419 2.9 255 19.2 102280 75
2009-07-01 14:04 51°16.971 2°52.461 2.4 259 19.2 102280 75
2009-07-01 14:05 51°16.773 2°52.544 4 256 19.2 102280 75
2009-07-01 14:06 51°16.575 2°52.63 3.4 254 19.2 102280 74
2009-07-01 14:07 51°16.378 2°52.715 4.5 254 19.2 102280 76
2009-07-01 14:08 51°16.182 2°52.801 3.6 251 19.2 102280 75
2009-07-01 14:09 51°15.99 2°52.899 4 252 19.2 102280 75
2009-07-01 14:10 51°15.802 2°53.019 5.7 247 19.2 102280 76
2009-07-01 14:11 51°15.624 2°53.146 5.4 252 19.2 102280 74
2009-07-01 14:12 51°15.444 2°53.275 5.1 245 19.2 102280 76
2009-07-01 14:13 51°15.276 2°53.434 5.6 252 19.2 102280 75
2009-07-01 14:14 51°15.157 2°53.589 6.4 250 19.2 102270 76
2009-07-01 14:15 51°15.092 2°53.729 7.3 252 19.2 102270 76
2009-07-01 14:16 51°15.045 2°53.842 8.1 251 19.1 102270 76
2009-07-01 14:17 51°15.009 2°53.946 7 248 19 102270 76
2009-07-01 14:18 51°14.977 2°54.043 7.5 248 19 102270 78
2009-07-01 14:19 51°14.938 2°54.145 7.9 255 18.9 102270 77
2009-07-01 14:20 51°14.867 2°54.279 7.8 254 18.9 102270 76
2009-07-01 14:21 51°14.759 2°54.445 4.4 253 18.8 102270 76
2009-07-01 14:22 51°14.615 2°54.625 5.7 245 18.8 102270 77
2009-07-01 14:23 51°14.469 2°54.825 6.9 244 18.8 102270 78
2009-07-01 14:24 51°14.346 2°55.06 6.7 244 18.7 102260 77
2009-07-01 14:25 51°14.258 2°55.241 6.7 258 18.7 102270 78
2009-07-01 14:26 51°14.156 2°55.371 3.3 26 18.7 102280 79
2009-07-01 14:27 51°14.039 2°55.466 3.2 259 18.7 102280 78
2009-07-01 14:28 51°13.929 2°55.547 2.3 264 18.8 102270 79
2009-07-01 14:29 51°13.822 2°55.632 3.5 28 18.8 102280 77
2009-07-01 14:30 51°13.741 2°55.746 3.5 264 18.8 102270 78
2009-07-01 14:31 51°13.697 2°55.832 3 261 18.8 102270 77
2009-07-01 14:32 51°13.672 2°55.917 3.4 22 18.8 102270 78
2009-07-01 14:33 51°13.662 2°55.954 4 266 18.9 102270 77